createdAt,value
2022-11-27T00:00:35.764Z,9.91
2022-11-27T00:01:35.772Z,9.91
2022-11-27T00:02:40.406Z,9.83
2022-11-27T00:03:36.909Z,9.80
2022-11-27T00:04:35.746Z,9.82
2022-11-27T00:05:35.752Z,9.80
2022-11-27T00:06:35.708Z,9.79
2022-11-27T00:07:35.877Z,9.80
2022-11-27T00:08:35.679Z,9.79
2022-11-27T00:09:35.695Z,9.72
2022-11-27T00:10:35.685Z,9.83
2022-11-27T00:11:35.694Z,9.79
2022-11-27T00:12:35.658Z,9.68
2022-11-27T00:13:35.625Z,9.69
2022-11-27T00:14:35.633Z,9.65
2022-11-27T00:15:35.672Z,9.62
2022-11-27T00:16:35.590Z,9.66
2022-11-27T00:17:35.594Z,9.64
2022-11-27T00:18:35.574Z,9.72
2022-11-27T00:19:35.568Z,9.69
2022-11-27T00:20:35.587Z,9.74
2022-11-27T00:21:35.541Z,9.77
2022-11-27T00:22:35.536Z,9.83
2022-11-27T00:23:35.517Z,9.76
2022-11-27T00:24:35.530Z,9.83
2022-11-27T00:25:35.506Z,9.77
2022-11-27T00:26:38.180Z,9.83
2022-11-27T00:27:35.482Z,9.84
2022-11-27T00:28:35.510Z,9.83
2022-11-27T00:29:35.468Z,9.80
2022-11-27T00:30:35.455Z,9.82
2022-11-27T00:31:35.534Z,9.80
2022-11-27T00:32:35.429Z,9.82
2022-11-27T00:33:35.422Z,9.82
2022-11-27T00:34:35.425Z,9.91
2022-11-27T00:35:35.439Z,9.84
2022-11-27T00:36:35.404Z,9.84
2022-11-27T00:37:35.384Z,9.89
2022-11-27T00:38:38.707Z,9.89
2022-11-27T00:39:35.352Z,9.87
2022-11-27T00:40:35.334Z,9.98
2022-11-27T00:41:35.383Z,9.98
2022-11-27T00:42:36.565Z,9.87
2022-11-27T00:43:43.560Z,9.89
2022-11-27T00:44:36.304Z,9.84
2022-11-27T00:45:35.288Z,9.83
2022-11-27T00:46:35.342Z,9.84
2022-11-27T00:47:35.274Z,9.68
2022-11-27T00:48:35.265Z,9.69
2022-11-27T00:49:35.245Z,9.66
2022-11-27T00:50:35.226Z,9.64
2022-11-27T00:51:35.216Z,9.61
2022-11-27T00:52:35.239Z,9.69
2022-11-27T00:53:35.203Z,9.56
2022-11-27T00:54:35.186Z,9.55
2022-11-27T00:55:35.172Z,9.66
2022-11-27T00:56:35.170Z,9.66
2022-11-27T00:57:35.185Z,9.65
2022-11-27T00:58:35.165Z,9.58
2022-11-27T00:59:35.141Z,9.64
2022-11-27T01:00:35.120Z,9.72
2022-11-27T01:01:35.188Z,9.65
2022-11-27T01:02:35.222Z,9.66
2022-11-27T01:03:35.111Z,9.76
2022-11-27T01:04:35.083Z,9.72
2022-11-27T01:05:35.082Z,9.64
2022-11-27T01:06:35.052Z,9.64
2022-11-27T01:07:35.094Z,9.55
2022-11-27T01:08:35.051Z,9.56
2022-11-27T01:09:35.039Z,9.56
2022-11-27T01:10:35.014Z,9.51
2022-11-27T01:11:35.021Z,9.54
2022-11-27T01:12:34.990Z,9.54
2022-11-27T01:13:34.986Z,9.51
2022-11-27T01:14:34.984Z,9.61
2022-11-27T01:15:34.967Z,9.58
2022-11-27T01:16:35.011Z,9.59
2022-11-27T01:17:44.089Z,9.61
2022-11-27T01:18:34.933Z,9.68
2022-11-27T01:19:34.953Z,9.59
2022-11-27T01:20:34.906Z,9.58
2022-11-27T01:21:34.901Z,9.66
2022-11-27T01:22:34.884Z,9.55
2022-11-27T01:23:34.871Z,9.64
2022-11-27T01:24:34.881Z,9.65
2022-11-27T01:25:34.873Z,9.59
2022-11-27T01:26:34.838Z,9.56
2022-11-27T01:27:34.831Z,9.55
2022-11-27T01:28:34.828Z,9.65
2022-11-27T01:29:34.819Z,9.58
2022-11-27T01:30:34.816Z,9.59
2022-11-27T01:31:34.854Z,9.58
2022-11-27T01:32:34.775Z,9.61
2022-11-27T01:33:34.800Z,9.62
2022-11-27T01:34:34.753Z,9.68
2022-11-27T01:35:34.753Z,9.62
2022-11-27T01:36:34.764Z,9.54
2022-11-27T01:37:34.721Z,9.64
2022-11-27T01:38:34.709Z,9.69
2022-11-27T01:39:34.697Z,9.66
2022-11-27T01:40:34.710Z,9.68
2022-11-27T01:41:34.680Z,9.68
2022-11-27T01:42:34.681Z,9.74
2022-11-27T01:43:34.660Z,9.76
2022-11-27T01:44:34.649Z,9.80
2022-11-27T01:45:34.634Z,9.79
2022-11-27T01:46:34.701Z,9.83
2022-11-27T01:47:34.619Z,9.84
2022-11-27T01:48:34.604Z,9.77
2022-11-27T01:49:34.616Z,9.84
2022-11-27T01:50:34.593Z,9.80
2022-11-27T01:51:34.598Z,9.86
2022-11-27T01:52:34.565Z,9.91
2022-11-27T01:53:34.552Z,9.92
2022-11-27T01:54:34.546Z,9.91
2022-11-27T01:55:34.546Z,9.84
2022-11-27T01:56:34.549Z,9.89
2022-11-27T01:57:34.522Z,9.89
2022-11-27T01:58:34.506Z,9.98
2022-11-27T01:59:34.487Z,9.89
2022-11-27T02:00:34.476Z,9.94
2022-11-27T02:01:34.537Z,9.94
2022-11-27T02:02:34.542Z,9.95
2022-11-27T02:03:34.442Z,9.98
2022-11-27T02:04:34.431Z,9.95
2022-11-27T02:05:34.428Z,9.92
2022-11-27T02:06:34.410Z,9.84
2022-11-27T02:07:34.539Z,9.84
2022-11-27T02:08:34.392Z,9.87
2022-11-27T02:09:34.383Z,9.86
2022-11-27T02:10:34.368Z,9.89
2022-11-27T02:11:34.382Z,9.82
2022-11-27T02:12:34.366Z,9.83
2022-11-27T02:13:34.361Z,9.79
2022-11-27T02:14:34.323Z,9.73
2022-11-27T02:15:34.315Z,9.77
2022-11-27T02:16:34.350Z,9.73
2022-11-27T02:17:34.309Z,9.69
2022-11-27T02:18:34.297Z,9.66
2022-11-27T02:19:34.270Z,9.62
2022-11-27T02:20:34.258Z,9.62
2022-11-27T02:21:34.249Z,9.61
2022-11-27T02:22:34.238Z,9.58
2022-11-27T02:23:34.244Z,9.54
2022-11-27T02:24:34.228Z,9.59
2022-11-27T02:25:34.227Z,9.59
2022-11-27T02:26:34.194Z,9.61
2022-11-27T02:27:34.188Z,9.61
2022-11-27T02:28:34.197Z,9.56
2022-11-27T02:29:34.170Z,9.58
2022-11-27T02:30:34.155Z,9.56
2022-11-27T02:31:34.244Z,9.59
2022-11-27T02:32:34.152Z,9.58
2022-11-27T02:33:34.122Z,9.55
2022-11-27T02:34:34.129Z,9.47
2022-11-27T02:35:34.106Z,9.44
2022-11-27T02:36:34.090Z,9.39
2022-11-27T02:37:34.085Z,9.25
2022-11-27T02:38:34.087Z,9.37
2022-11-27T02:39:34.063Z,9.36
2022-11-27T02:40:34.065Z,9.26
2022-11-27T02:41:34.045Z,9.34
2022-11-27T02:42:34.130Z,9.31
2022-11-27T02:43:34.018Z,9.28
2022-11-27T02:44:34.019Z,9.25
2022-11-27T02:45:34.017Z,9.19
2022-11-27T02:46:34.075Z,9.18
2022-11-27T02:47:33.969Z,9.19
2022-11-27T02:48:33.957Z,9.26
2022-11-27T02:49:33.950Z,9.25
2022-11-27T02:50:33.957Z,9.25
2022-11-27T02:51:33.930Z,9.14
2022-11-27T02:52:33.926Z,9.19
2022-11-27T02:53:33.913Z,9.23
2022-11-27T02:54:33.901Z,9.18
2022-11-27T02:55:33.887Z,9.06
2022-11-27T02:56:33.895Z,9.08
2022-11-27T02:57:33.870Z,9.04
2022-11-27T02:58:33.972Z,9.14
2022-11-27T02:59:33.841Z,9.08
2022-11-27T03:00:33.834Z,9.04
2022-11-27T03:01:33.909Z,9.04
2022-11-27T03:02:33.861Z,8.97
2022-11-27T03:03:33.799Z,8.94
2022-11-27T03:04:33.785Z,8.99
2022-11-27T03:05:33.782Z,8.85
2022-11-27T03:06:33.790Z,8.97
2022-11-27T03:07:33.874Z,8.92
2022-11-27T03:08:33.742Z,8.94
2022-11-27T03:09:33.740Z,8.87
2022-11-27T03:10:33.750Z,8.87
2022-11-27T03:11:33.732Z,8.85
2022-11-27T03:12:33.705Z,8.91
2022-11-27T03:13:33.705Z,8.82
2022-11-27T03:14:33.800Z,8.81
2022-11-27T03:15:33.732Z,8.85
2022-11-27T03:16:33.814Z,8.84
2022-11-27T03:17:33.658Z,8.67
2022-11-27T03:18:33.656Z,8.74
2022-11-27T03:19:33.633Z,8.71
2022-11-27T03:20:33.615Z,8.69
2022-11-27T03:21:33.610Z,8.70
2022-11-27T03:22:33.625Z,8.71
2022-11-27T03:23:33.599Z,8.70
2022-11-27T03:24:33.579Z,8.67
2022-11-27T03:25:33.568Z,8.71
2022-11-27T03:26:33.552Z,8.73
2022-11-27T03:27:33.544Z,8.74
2022-11-27T03:28:33.542Z,8.71
2022-11-27T03:29:33.519Z,8.63
2022-11-27T03:30:33.614Z,8.71
2022-11-27T03:31:33.592Z,8.60
2022-11-27T03:32:33.497Z,8.51
2022-11-27T03:33:33.500Z,8.53
2022-11-27T03:34:33.477Z,8.61
2022-11-27T03:35:33.457Z,8.51
2022-11-27T03:36:33.455Z,8.60
2022-11-27T03:37:33.445Z,8.63
2022-11-27T03:38:33.423Z,8.60
2022-11-27T03:39:33.588Z,8.51
2022-11-27T03:40:33.399Z,8.51
2022-11-27T03:41:33.396Z,8.67
2022-11-27T03:42:33.388Z,8.66
2022-11-27T03:43:33.368Z,8.71
2022-11-27T03:44:33.367Z,8.67
2022-11-27T03:45:33.347Z,8.70
2022-11-27T03:46:33.513Z,8.69
2022-11-27T03:47:33.349Z,8.74
2022-11-27T03:48:33.319Z,8.70
2022-11-27T03:49:33.318Z,8.81
2022-11-27T03:50:33.296Z,8.71
2022-11-27T03:51:33.281Z,8.70
2022-11-27T03:52:33.277Z,8.70
2022-11-27T03:53:33.278Z,8.61
2022-11-27T03:54:33.261Z,8.49
2022-11-27T03:55:33.242Z,8.41
2022-11-27T03:56:33.232Z,8.44
2022-11-27T03:57:33.219Z,8.44
2022-11-27T03:58:33.215Z,8.45
2022-11-27T03:59:33.214Z,8.46
2022-11-27T04:00:33.199Z,8.38
2022-11-27T04:01:33.246Z,8.37
2022-11-27T04:02:33.283Z,8.44
2022-11-27T04:03:33.179Z,8.37
2022-11-27T04:04:33.180Z,8.34
2022-11-27T04:05:33.137Z,8.36
2022-11-27T04:06:33.139Z,8.30
2022-11-27T04:07:33.192Z,8.31
2022-11-27T04:08:33.140Z,8.30
2022-11-27T04:09:33.087Z,8.30
2022-11-27T04:10:33.091Z,8.30
2022-11-27T04:11:33.061Z,8.27
2022-11-27T04:12:33.061Z,8.34
2022-11-27T04:13:33.044Z,8.20
2022-11-27T04:14:33.031Z,8.30
2022-11-27T04:15:33.062Z,8.16
2022-11-27T04:16:33.078Z,8.09
2022-11-27T04:17:33.010Z,8.24
2022-11-27T04:18:33.100Z,8.19
2022-11-27T04:19:32.976Z,8.10
2022-11-27T04:20:32.979Z,8.13
2022-11-27T04:21:32.998Z,8.12
2022-11-27T04:22:32.982Z,8.06
2022-11-27T04:23:32.938Z,8.03
2022-11-27T04:24:32.933Z,8.06
2022-11-27T04:25:32.943Z,7.98
2022-11-27T04:26:32.905Z,8.06
2022-11-27T04:27:32.887Z,7.93
2022-11-27T04:28:32.886Z,7.87
2022-11-27T04:29:32.898Z,7.91
2022-11-27T04:30:32.886Z,7.90
2022-11-27T04:31:32.947Z,7.82
2022-11-27T04:32:32.848Z,7.72
2022-11-27T04:33:32.839Z,7.75
2022-11-27T04:34:32.929Z,7.70
2022-11-27T04:35:32.802Z,7.70
2022-11-27T04:36:38.842Z,7.61
2022-11-27T04:37:33.806Z,7.70
2022-11-27T04:38:32.816Z,7.67
2022-11-27T04:39:32.758Z,7.79
2022-11-27T04:40:32.792Z,7.79
2022-11-27T04:41:32.746Z,7.75
2022-11-27T04:42:32.723Z,7.69
2022-11-27T04:43:32.752Z,7.75
2022-11-27T04:44:32.715Z,7.75
2022-11-27T04:45:32.699Z,7.73
2022-11-27T04:46:32.751Z,7.69
2022-11-27T04:47:32.674Z,7.75
2022-11-27T04:48:32.691Z,7.83
2022-11-27T04:49:32.655Z,7.91
2022-11-27T04:50:32.790Z,7.93
2022-11-27T04:51:32.634Z,7.93
2022-11-27T04:52:32.629Z,7.88
2022-11-27T04:53:32.615Z,7.90
2022-11-27T04:54:32.610Z,7.91
2022-11-27T04:55:32.588Z,7.93
2022-11-27T04:56:32.609Z,7.82
2022-11-27T04:57:32.574Z,7.83
2022-11-27T04:58:32.566Z,7.70
2022-11-27T04:59:32.538Z,7.80
2022-11-27T05:00:32.602Z,7.80
2022-11-27T05:01:32.558Z,7.75
2022-11-27T05:02:32.600Z,7.72
2022-11-27T05:03:32.512Z,7.73
2022-11-27T05:04:32.493Z,7.63
2022-11-27T05:05:32.487Z,7.58
2022-11-27T05:06:32.618Z,7.67
2022-11-27T05:07:32.552Z,7.72
2022-11-27T05:08:32.454Z,7.73
2022-11-27T05:09:32.434Z,7.70
2022-11-27T05:10:32.438Z,7.76
2022-11-27T05:11:32.412Z,7.80
2022-11-27T05:12:32.437Z,7.70
2022-11-27T05:13:32.392Z,7.75
2022-11-27T05:14:32.389Z,7.67
2022-11-27T05:15:32.371Z,7.80
2022-11-27T05:16:32.437Z,7.67
2022-11-27T05:17:32.396Z,7.75
2022-11-27T05:18:32.343Z,7.73
2022-11-27T05:19:32.329Z,7.75
2022-11-27T05:20:32.326Z,7.72
2022-11-27T05:21:32.309Z,7.72
2022-11-27T05:22:32.421Z,7.69
2022-11-27T05:23:32.323Z,7.75
2022-11-27T05:24:32.283Z,7.75
2022-11-27T05:25:32.266Z,7.79
2022-11-27T05:26:32.255Z,7.70
2022-11-27T05:27:32.243Z,7.73
2022-11-27T05:28:32.280Z,7.77
2022-11-27T05:29:32.229Z,7.77
2022-11-27T05:30:32.213Z,7.75
2022-11-27T05:31:32.218Z,7.73
2022-11-27T05:32:32.198Z,7.72
2022-11-27T05:33:32.191Z,7.57
2022-11-27T05:34:32.200Z,7.63
2022-11-27T05:35:32.159Z,7.60
2022-11-27T05:36:32.152Z,7.56
2022-11-27T05:37:32.144Z,7.50
2022-11-27T05:38:32.264Z,7.51
2022-11-27T05:39:32.169Z,7.43
2022-11-27T05:40:32.107Z,7.45
2022-11-27T05:41:32.100Z,7.31
2022-11-27T05:42:32.091Z,7.31
2022-11-27T05:43:32.076Z,7.29
2022-11-27T05:44:32.084Z,7.32
2022-11-27T05:45:32.095Z,7.29
2022-11-27T05:46:32.188Z,7.17
2022-11-27T05:47:32.040Z,7.20
2022-11-27T05:48:32.017Z,7.21
2022-11-27T05:49:32.051Z,7.10
2022-11-27T05:50:32.009Z,7.02
2022-11-27T05:51:31.996Z,7.10
2022-11-27T05:52:31.984Z,6.97
2022-11-27T05:53:31.974Z,7.07
2022-11-27T05:54:38.061Z,7.07
2022-11-27T05:55:33.102Z,7.06
2022-11-27T05:56:31.942Z,7.03
2022-11-27T05:57:31.933Z,6.97
2022-11-27T05:58:31.936Z,6.93
2022-11-27T05:59:31.905Z,6.96
2022-11-27T06:00:31.936Z,6.96
2022-11-27T06:01:31.958Z,6.96
2022-11-27T06:02:32.025Z,7.07
2022-11-27T06:03:31.934Z,7.02
2022-11-27T06:04:31.850Z,7.05
2022-11-27T06:05:31.844Z,7.03
2022-11-27T06:06:31.892Z,7.05
2022-11-27T06:07:31.925Z,7.02
2022-11-27T06:08:31.814Z,7.07
2022-11-27T06:09:31.806Z,6.99
2022-11-27T06:10:31.789Z,7.00
2022-11-27T06:11:31.914Z,7.06
2022-11-27T06:12:31.800Z,7.14
2022-11-27T06:13:31.754Z,6.99
2022-11-27T06:14:31.749Z,7.11
2022-11-27T06:15:31.737Z,7.11
2022-11-27T06:16:31.831Z,7.05
2022-11-27T06:17:31.745Z,7.03
2022-11-27T06:18:31.707Z,7.02
2022-11-27T06:19:31.700Z,7.14
2022-11-27T06:20:31.685Z,7.11
2022-11-27T06:21:31.671Z,7.11
2022-11-27T06:22:31.694Z,7.02
2022-11-27T06:23:31.677Z,6.93
2022-11-27T06:24:31.636Z,7.02
2022-11-27T06:25:31.632Z,6.99
2022-11-27T06:26:31.626Z,7.03
2022-11-27T06:27:31.743Z,6.95
2022-11-27T06:28:31.596Z,6.96
2022-11-27T06:29:31.590Z,6.97
2022-11-27T06:30:31.590Z,6.89
2022-11-27T06:31:31.594Z,6.99
2022-11-27T06:32:31.588Z,6.99
2022-11-27T06:33:31.541Z,6.93
2022-11-27T06:34:31.537Z,6.99
2022-11-27T06:35:31.527Z,6.93
2022-11-27T06:36:31.518Z,6.92
2022-11-27T06:37:31.504Z,6.95
2022-11-27T06:38:31.513Z,7.03
2022-11-27T06:39:31.479Z,7.00
2022-11-27T06:40:31.498Z,7.05
2022-11-27T06:41:31.456Z,7.06
2022-11-27T06:42:31.453Z,7.03
2022-11-27T06:43:31.581Z,7.02
2022-11-27T06:44:31.431Z,6.99
2022-11-27T06:45:31.472Z,7.00
2022-11-27T06:46:31.411Z,6.97
2022-11-27T06:47:31.420Z,7.02
2022-11-27T06:48:31.387Z,6.96
2022-11-27T06:49:31.379Z,6.96
2022-11-27T06:50:31.360Z,7.02
2022-11-27T06:51:31.355Z,6.99
2022-11-27T06:52:33.620Z,7.00
2022-11-27T06:53:31.329Z,7.06
2022-11-27T06:54:31.352Z,6.93
2022-11-27T06:55:31.317Z,6.97
2022-11-27T06:56:31.298Z,6.92
2022-11-27T06:57:31.289Z,6.87
2022-11-27T06:58:31.468Z,6.87
2022-11-27T06:59:31.391Z,6.88
2022-11-27T07:00:31.260Z,6.95
2022-11-27T07:01:31.367Z,6.97
2022-11-27T07:02:31.274Z,7.02
2022-11-27T07:03:31.225Z,6.92
2022-11-27T07:04:31.240Z,6.96
2022-11-27T07:05:31.229Z,7.00
2022-11-27T07:06:31.198Z,6.96
2022-11-27T07:07:31.202Z,6.96
2022-11-27T07:08:31.173Z,6.84
2022-11-27T07:09:31.179Z,6.79
2022-11-27T07:10:31.149Z,6.75
2022-11-27T07:11:31.144Z,6.74
2022-11-27T07:12:31.137Z,6.79
2022-11-27T07:13:31.126Z,6.82
2022-11-27T07:14:31.140Z,6.81
2022-11-27T07:15:31.207Z,6.81
2022-11-27T07:16:31.122Z,6.88
2022-11-27T07:17:42.691Z,6.92
2022-11-27T07:18:31.074Z,6.95
2022-11-27T07:19:31.136Z,6.85
2022-11-27T07:20:31.080Z,6.95
2022-11-27T07:21:31.036Z,7.00
2022-11-27T07:22:31.037Z,6.97
2022-11-27T07:23:31.008Z,7.07
2022-11-27T07:24:31.090Z,7.02
2022-11-27T07:25:31.003Z,6.99
2022-11-27T07:26:31.033Z,6.95
2022-11-27T07:27:31.021Z,6.97
2022-11-27T07:28:30.968Z,7.00
2022-11-27T07:29:30.994Z,7.02
2022-11-27T07:30:30.944Z,7.00
2022-11-27T07:31:31.193Z,7.05
2022-11-27T07:32:30.936Z,7.00
2022-11-27T07:33:30.944Z,7.07
2022-11-27T07:34:30.913Z,7.10
2022-11-27T07:35:30.897Z,7.00
2022-11-27T07:36:30.911Z,7.14
2022-11-27T07:37:30.889Z,7.17
2022-11-27T07:38:30.872Z,7.20
2022-11-27T07:40:00.290Z,7.23
2022-11-27T07:40:31.864Z,7.29
2022-11-27T07:41:34.090Z,7.29
2022-11-27T07:42:37.872Z,7.31
2022-11-27T07:43:31.813Z,7.31
2022-11-27T07:44:30.794Z,7.29
2022-11-27T07:45:30.841Z,7.32
2022-11-27T07:46:30.775Z,7.29
2022-11-27T07:47:30.869Z,7.33
2022-11-27T07:48:30.772Z,7.32
2022-11-27T07:49:30.733Z,7.38
2022-11-27T07:50:30.731Z,7.43
2022-11-27T07:51:30.717Z,7.54
2022-11-27T07:52:30.704Z,7.53
2022-11-27T07:53:30.728Z,7.48
2022-11-27T07:54:30.677Z,7.43
2022-11-27T07:55:30.676Z,7.43
2022-11-27T07:56:30.669Z,7.45
2022-11-27T07:57:30.658Z,7.43
2022-11-27T07:58:30.677Z,7.43
2022-11-27T07:59:30.631Z,7.43
2022-11-27T08:00:30.631Z,7.48
2022-11-27T08:01:30.664Z,7.60
2022-11-27T08:02:30.594Z,7.58
2022-11-27T08:03:30.695Z,7.60
2022-11-27T08:04:30.691Z,7.73
2022-11-27T08:05:30.566Z,7.94
2022-11-27T08:06:30.568Z,8.16
2022-11-27T08:07:30.672Z,8.37
2022-11-27T08:08:30.542Z,8.76
2022-11-27T08:09:30.576Z,8.97
2022-11-27T08:10:30.510Z,9.19
2022-11-27T08:11:30.534Z,9.28
2022-11-27T08:12:30.498Z,9.47
2022-11-27T08:13:30.477Z,9.59
2022-11-27T08:14:30.614Z,9.55
2022-11-27T08:15:30.479Z,9.58
2022-11-27T08:16:30.562Z,9.65
2022-11-27T08:17:30.517Z,9.65
2022-11-27T08:18:30.431Z,9.76
2022-11-27T08:19:30.541Z,9.69
2022-11-27T08:20:30.412Z,9.72
2022-11-27T08:21:30.410Z,9.87
2022-11-27T08:22:30.410Z,9.99
2022-11-27T08:23:30.388Z,10.13
2022-11-27T08:24:30.363Z,10.22
2022-11-27T08:25:30.349Z,10.56
2022-11-27T08:26:30.364Z,10.72
2022-11-27T08:27:30.332Z,10.75
2022-11-27T08:28:31.182Z,10.92
2022-11-27T08:29:33.920Z,11.19
2022-11-27T08:30:30.316Z,11.65
2022-11-27T08:31:30.367Z,12.21
2022-11-27T08:32:30.292Z,12.82
2022-11-27T08:33:30.946Z,13.35
2022-11-27T08:34:30.375Z,13.79
2022-11-27T08:35:30.362Z,14.12
2022-11-27T08:36:30.241Z,14.44
2022-11-27T08:37:30.220Z,14.73
2022-11-27T08:38:30.212Z,14.79
2022-11-27T08:39:30.198Z,14.69
2022-11-27T08:40:30.210Z,14.69
2022-11-27T08:41:30.176Z,14.88
2022-11-27T08:42:30.164Z,14.79
2022-11-27T08:43:30.153Z,14.86
2022-11-27T08:44:30.182Z,14.77
2022-11-27T08:45:30.234Z,14.73
2022-11-27T08:46:30.125Z,14.70
2022-11-27T08:47:30.120Z,14.41
2022-11-27T08:48:30.101Z,14.22
2022-11-27T08:49:30.275Z,14.05
2022-11-27T08:50:30.086Z,13.77
2022-11-27T08:51:30.175Z,13.57
2022-11-27T08:52:30.058Z,13.60
2022-11-27T08:53:30.047Z,13.97
2022-11-27T08:54:30.090Z,14.15
2022-11-27T08:55:30.043Z,14.30
2022-11-27T08:56:30.134Z,14.12
2022-11-27T08:57:30.042Z,13.81
2022-11-27T08:58:30.022Z,13.39
2022-11-27T08:59:30.027Z,13.08
2022-11-27T09:00:30.037Z,12.57
2022-11-27T09:01:30.154Z,12.20
2022-11-27T09:02:29.972Z,12.20
2022-11-27T09:03:29.946Z,12.06
2022-11-27T09:04:30.006Z,11.91
2022-11-27T09:05:29.941Z,11.97
2022-11-27T09:06:29.969Z,11.70
2022-11-27T09:07:30.141Z,11.47
2022-11-27T09:08:29.886Z,11.32
2022-11-27T09:09:29.885Z,11.17
2022-11-27T09:10:29.878Z,11.27
2022-11-27T09:11:29.856Z,11.26
2022-11-27T09:12:29.838Z,11.17
2022-11-27T09:13:29.838Z,11.00
2022-11-27T09:14:29.830Z,10.96
2022-11-27T09:15:29.839Z,10.78
2022-11-27T09:16:29.895Z,10.74
2022-11-27T09:17:29.787Z,10.46
2022-11-27T09:18:29.783Z,10.25
2022-11-27T09:19:29.762Z,10.28
2022-11-27T09:20:29.752Z,10.75
2022-11-27T09:21:29.763Z,10.97
2022-11-27T09:22:29.734Z,11.11
2022-11-27T09:23:29.899Z,11.17
2022-11-27T09:24:29.781Z,11.15
2022-11-27T09:25:29.776Z,11.19
2022-11-27T09:26:29.693Z,11.37
2022-11-27T09:27:29.698Z,11.68
2022-11-27T09:28:31.514Z,12.06
2022-11-27T09:29:29.667Z,12.65
2022-11-27T09:30:29.689Z,12.86
2022-11-27T09:31:29.716Z,13.44
2022-11-27T09:32:29.661Z,13.99
2022-11-27T09:33:30.629Z,14.54
2022-11-27T09:34:33.377Z,15.03
2022-11-27T09:35:30.669Z,15.39
2022-11-27T09:36:29.609Z,15.49
2022-11-27T09:37:29.575Z,15.58
2022-11-27T09:38:29.574Z,15.73
2022-11-27T09:39:29.677Z,15.77
2022-11-27T09:40:29.544Z,15.76
2022-11-27T09:41:29.533Z,15.36
2022-11-27T09:42:29.534Z,15.07
2022-11-27T09:43:29.528Z,14.92
2022-11-27T09:44:29.495Z,14.79
2022-11-27T09:45:29.546Z,14.58
2022-11-27T09:46:29.469Z,14.36
2022-11-27T09:47:29.466Z,14.04
2022-11-27T09:48:29.457Z,13.77
2022-11-27T09:49:29.455Z,13.50
2022-11-27T09:50:29.427Z,13.15
2022-11-27T09:51:29.435Z,12.90
2022-11-27T09:52:29.422Z,12.82
2022-11-27T09:53:29.394Z,12.67
2022-11-27T09:54:29.381Z,12.55
2022-11-27T09:55:29.509Z,12.49
2022-11-27T09:56:29.365Z,12.35
2022-11-27T09:57:29.355Z,12.29
2022-11-27T09:58:29.352Z,12.06
2022-11-27T09:59:29.364Z,12.00
2022-11-27T10:00:29.332Z,11.84
2022-11-27T10:01:37.185Z,11.69
2022-11-27T10:02:30.423Z,11.63
2022-11-27T10:03:29.403Z,11.55
2022-11-27T10:04:36.195Z,11.50
2022-11-27T10:05:30.824Z,11.52
2022-11-27T10:06:29.253Z,11.60
2022-11-27T10:07:29.328Z,11.65
2022-11-27T10:08:29.251Z,11.60
2022-11-27T10:09:29.228Z,11.50
2022-11-27T10:10:29.211Z,11.52
2022-11-27T10:11:29.358Z,11.23
2022-11-27T10:12:29.189Z,11.15
2022-11-27T10:13:29.181Z,11.14
2022-11-27T10:14:29.171Z,11.02
2022-11-27T10:15:29.168Z,11.17
2022-11-27T10:16:29.207Z,11.18
2022-11-27T10:17:29.176Z,11.19
2022-11-27T10:18:29.232Z,11.17
2022-11-27T10:19:29.119Z,11.19
2022-11-27T10:20:29.121Z,11.17
2022-11-27T10:21:29.752Z,11.37
2022-11-27T10:22:29.090Z,11.43
2022-11-27T10:23:29.077Z,11.60
2022-11-27T10:24:29.065Z,11.66
2022-11-27T10:25:29.067Z,11.84
2022-11-27T10:26:29.753Z,12.02
2022-11-27T10:27:29.145Z,12.04
2022-11-27T10:28:29.016Z,12.03
2022-11-27T10:29:29.042Z,12.04
2022-11-27T10:30:29.001Z,12.03
2022-11-27T10:31:29.071Z,12.06
2022-11-27T10:32:56.307Z,12.17
2022-11-27T10:33:29.961Z,12.29
2022-11-27T10:34:28.956Z,12.22
2022-11-27T10:35:28.970Z,12.20
2022-11-27T10:36:28.930Z,12.22
2022-11-27T10:37:28.948Z,12.15
2022-11-27T10:38:28.932Z,12.15
2022-11-27T10:39:28.912Z,12.10
2022-11-27T10:40:28.895Z,12.10
2022-11-27T10:41:48.048Z,12.07
2022-11-27T10:42:29.884Z,12.15
2022-11-27T10:43:28.995Z,12.10
2022-11-27T10:44:28.843Z,12.03
2022-11-27T10:45:29.824Z,11.97
2022-11-27T10:46:28.928Z,11.90
2022-11-27T10:47:33.495Z,11.84
2022-11-27T10:48:29.832Z,11.94
2022-11-27T10:49:28.797Z,11.88
2022-11-27T10:50:28.785Z,11.88
2022-11-27T10:51:28.772Z,11.81
2022-11-27T10:52:28.767Z,11.84
2022-11-27T10:53:28.754Z,11.78
2022-11-27T10:54:28.748Z,11.69
2022-11-27T10:55:28.724Z,11.62
2022-11-27T10:56:28.719Z,11.60
2022-11-27T10:57:28.702Z,11.66
2022-11-27T10:58:31.418Z,11.69
2022-11-27T10:59:33.164Z,11.60
2022-11-27T11:00:29.680Z,11.69
2022-11-27T11:01:28.728Z,11.66
2022-11-27T11:02:28.701Z,11.65
2022-11-27T11:03:28.653Z,11.66
2022-11-27T11:04:37.863Z,11.47
2022-11-27T11:06:29.607Z,11.45
2022-11-27T11:07:28.666Z,11.43
2022-11-27T11:08:28.582Z,11.41
2022-11-27T11:09:28.584Z,11.32
2022-11-27T11:10:28.566Z,11.29
2022-11-27T11:11:28.547Z,11.19
2022-11-27T11:12:28.549Z,11.32
2022-11-27T11:13:28.539Z,11.32
2022-11-27T11:14:28.527Z,11.36
2022-11-27T11:15:28.636Z,11.35
2022-11-27T11:16:34.493Z,11.52
2022-11-27T11:17:29.576Z,11.52
2022-11-27T11:18:28.483Z,11.52
2022-11-27T11:19:28.517Z,11.47
2022-11-27T11:20:28.451Z,11.40
2022-11-27T11:21:28.448Z,11.27
2022-11-27T11:22:28.460Z,11.11
2022-11-27T11:23:28.415Z,11.05
2022-11-27T11:24:28.449Z,10.89
2022-11-27T11:25:28.433Z,10.87
2022-11-27T11:26:28.399Z,10.82
2022-11-27T11:27:28.373Z,10.86
2022-11-27T11:28:28.364Z,10.82
2022-11-27T11:29:28.363Z,10.69
2022-11-27T11:30:31.188Z,10.84
2022-11-27T11:31:36.449Z,10.84
2022-11-27T11:32:28.500Z,10.78
2022-11-27T11:33:28.319Z,10.87
2022-11-27T11:34:28.303Z,11.07
2022-11-27T11:35:28.296Z,11.10
2022-11-27T11:36:28.297Z,10.99
2022-11-27T11:37:28.269Z,11.07
2022-11-27T11:38:28.257Z,10.99
2022-11-27T11:39:28.252Z,10.96
2022-11-27T11:40:28.254Z,10.82
2022-11-27T11:41:28.294Z,10.78
2022-11-27T11:42:28.227Z,10.82
2022-11-27T11:43:28.211Z,10.81
2022-11-27T11:44:28.196Z,10.89
2022-11-27T11:45:31.363Z,10.93
2022-11-27T11:46:28.415Z,10.96
2022-11-27T11:47:28.201Z,10.96
2022-11-27T11:48:28.170Z,11.02
2022-11-27T11:49:28.134Z,11.17
2022-11-27T11:50:28.129Z,10.99
2022-11-27T11:51:29.516Z,10.89
2022-11-27T11:52:28.109Z,10.86
2022-11-27T11:53:28.093Z,10.97
2022-11-27T11:54:28.091Z,11.04
2022-11-27T11:55:28.068Z,11.17
2022-11-27T11:56:28.065Z,11.23
2022-11-27T11:57:28.077Z,11.37
2022-11-27T11:58:28.037Z,11.40
2022-11-27T11:59:28.033Z,11.50
2022-11-27T12:00:30.879Z,11.52
2022-11-27T12:01:29.010Z,11.02
2022-11-27T12:02:28.216Z,10.87
2022-11-27T12:03:28.015Z,10.76
2022-11-27T12:04:28.046Z,10.82
2022-11-27T12:05:27.958Z,10.92
2022-11-27T12:06:27.974Z,11.02
2022-11-27T12:07:28.015Z,11.11
2022-11-27T12:08:28.307Z,10.90
2022-11-27T12:09:27.929Z,10.74
2022-11-27T12:10:27.914Z,10.75
2022-11-27T12:11:27.906Z,10.69
2022-11-27T12:12:27.890Z,10.69
2022-11-27T12:13:32.938Z,10.67
2022-11-27T12:14:28.886Z,10.68
2022-11-27T12:15:27.858Z,10.74
2022-11-27T12:16:27.888Z,10.72
2022-11-27T12:17:27.835Z,10.76
2022-11-27T12:18:27.954Z,10.68
2022-11-27T12:19:27.842Z,10.63
2022-11-27T12:20:27.797Z,10.57
2022-11-27T12:21:27.930Z,10.57
2022-11-27T12:22:27.789Z,10.57
2022-11-27T12:23:27.771Z,10.40
2022-11-27T12:24:27.871Z,10.15
2022-11-27T12:25:27.747Z,10.05
2022-11-27T12:26:27.760Z,9.91
2022-11-27T12:27:27.735Z,9.87
2022-11-27T12:28:27.753Z,9.87
2022-11-27T12:29:27.703Z,9.82
2022-11-27T12:30:27.709Z,9.87
2022-11-27T12:31:27.779Z,9.86
2022-11-27T12:32:27.683Z,9.89
2022-11-27T12:33:27.686Z,9.76
2022-11-27T12:34:27.763Z,9.79
2022-11-27T12:35:27.640Z,9.79
2022-11-27T12:36:27.626Z,9.83
2022-11-27T12:37:27.665Z,9.86
2022-11-27T12:38:27.608Z,9.86
2022-11-27T12:39:27.602Z,9.73
2022-11-27T12:40:27.585Z,9.68
2022-11-27T12:41:27.575Z,9.54
2022-11-27T12:42:27.563Z,9.56
2022-11-27T12:43:27.581Z,9.61
2022-11-27T12:44:27.576Z,9.58
2022-11-27T12:45:27.672Z,9.66
2022-11-27T12:46:27.585Z,9.72
2022-11-27T12:47:27.539Z,9.80
2022-11-27T12:48:27.655Z,9.82
2022-11-27T12:49:27.596Z,9.66
2022-11-27T12:50:27.616Z,9.77
2022-11-27T12:51:27.508Z,9.79
2022-11-27T12:52:27.542Z,9.86
2022-11-27T12:53:27.476Z,9.86
2022-11-27T12:54:27.471Z,9.94
2022-11-27T12:55:27.446Z,9.94
2022-11-27T12:56:27.421Z,9.94
2022-11-27T12:57:27.416Z,10.04
2022-11-27T12:58:27.426Z,10.12
2022-11-27T12:59:27.385Z,10.22
2022-11-27T13:00:27.397Z,10.28
2022-11-27T13:01:27.430Z,10.38
2022-11-27T13:02:27.408Z,10.28
2022-11-27T13:03:27.353Z,10.13
2022-11-27T13:04:27.351Z,10.04
2022-11-27T13:05:27.324Z,10.04
2022-11-27T13:06:27.429Z,10.05
2022-11-27T13:07:27.411Z,10.07
2022-11-27T13:08:27.289Z,10.20
2022-11-27T13:09:27.338Z,10.22
2022-11-27T13:10:27.278Z,10.15